sensor_id;sensor_type;location;lat;lon;timestamp;temperature;humidity
25360;DHT22;13311;51.386;0.016;2022-07-29T00:02:43;19.30;80.60
25360;DHT22;13311;51.386;0.016;2022-07-29T00:07:44;19.20;80.10
25360;DHT22;13311;51.386;0.016;2022-07-29T00:12:45;19.10;80.70
25360;DHT22;13311;51.386;0.016;2022-07-29T00:17:45;19.10;81.20
25360;DHT22;13311;51.386;0.016;2022-07-29T00:22:46;19.00;81.50
25360;DHT22;13311;51.386;0.016;2022-07-29T00:27:47;19.10;81.50
25360;DHT22;13311;51.386;0.016;2022-07-29T00:32:48;19.10;81.50
25360;DHT22;13311;51.386;0.016;2022-07-29T00:37:49;19.10;81.90
25360;DHT22;13311;51.386;0.016;2022-07-29T00:42:51;19.10;82.40
25360;DHT22;13311;51.386;0.016;2022-07-29T00:47:52;19.10;82.60
25360;DHT22;13311;51.386;0.016;2022-07-29T00:52:53;19.10;83.00
25360;DHT22;13311;51.386;0.016;2022-07-29T00:57:55;19.00;83.70
25360;DHT22;13311;51.386;0.016;2022-07-29T01:02:57;19.10;84.00
25360;DHT22;13311;51.386;0.016;2022-07-29T01:07:59;19.00;84.60
25360;DHT22;13311;51.386;0.016;2022-07-29T01:13:00;18.90;85.10
25360;DHT22;13311;51.386;0.016;2022-07-29T01:18:09;18.90;85.10
25360;DHT22;13311;51.386;0.016;2022-07-29T01:34:17;18.90;85.20
25360;DHT22;13311;51.386;0.016;2022-07-29T01:39:34;19.00;84.90
25360;DHT22;13311;51.386;0.016;2022-07-29T01:44:41;19.00;84.80
25360;DHT22;13311;51.386;0.016;2022-07-29T01:49:51;19.00;84.60
25360;DHT22;13311;51.386;0.016;2022-07-29T01:54:58;19.10;84.70
25360;DHT22;13311;51.386;0.016;2022-07-29T02:00:00;19.00;84.70
25360;DHT22;13311;51.386;0.016;2022-07-29T02:05:04;19.00;84.70
25360;DHT22;13311;51.386;0.016;2022-07-29T02:10:07;19.10;83.00
25360;DHT22;13311;51.386;0.016;2022-07-29T02:15:09;19.00;83.20
25360;DHT22;13311;51.386;0.016;2022-07-29T02:20:12;19.00;83.70
25360;DHT22;13311;51.386;0.016;2022-07-29T02:25:14;19.00;82.70
25360;DHT22;13311;51.386;0.016;2022-07-29T02:30:16;18.90;82.00
25360;DHT22;13311;51.386;0.016;2022-07-29T02:35:18;18.80;82.00
25360;DHT22;13311;51.386;0.016;2022-07-29T02:40:20;18.70;82.30
25360;DHT22;13311;51.386;0.016;2022-07-29T02:45:21;18.70;82.40
25360;DHT22;13311;51.386;0.016;2022-07-29T02:50:34;18.60;82.60
25360;DHT22;13311;51.386;0.016;2022-07-29T02:55:43;18.50;83.10
25360;DHT22;13311;51.386;0.016;2022-07-29T03:00:48;18.40;83.10
25360;DHT22;13311;51.386;0.016;2022-07-29T03:05:51;18.30;82.60
25360;DHT22;13311;51.386;0.016;2022-07-29T03:10:55;18.20;82.90
25360;DHT22;13311;51.386;0.016;2022-07-29T03:15:57;18.10;83.40
25360;DHT22;13311;51.386;0.016;2022-07-29T03:20:58;18.00;83.80
25360;DHT22;13311;51.386;0.016;2022-07-29T03:25:59;17.90;83.60
25360;DHT22;13311;51.386;0.016;2022-07-29T03:31:00;17.70;83.60
25360;DHT22;13311;51.386;0.016;2022-07-29T03:36:01;17.60;84.10
25360;DHT22;13311;51.386;0.016;2022-07-29T03:41:09;17.50;84.80
25360;DHT22;13311;51.386;0.016;2022-07-29T03:46:11;17.50;85.10
25360;DHT22;13311;51.386;0.016;2022-07-29T03:51:14;17.40;85.60
25360;DHT22;13311;51.386;0.016;2022-07-29T03:56:16;17.40;86.20
25360;DHT22;13311;51.386;0.016;2022-07-29T04:01:18;17.30;86.30
25360;DHT22;13311;51.386;0.016;2022-07-29T04:06:19;17.30;85.70
25360;DHT22;13311;51.386;0.016;2022-07-29T04:11:20;17.10;86.00
25360;DHT22;13311;51.386;0.016;2022-07-29T04:16:21;17.00;86.60
25360;DHT22;13311;51.386;0.016;2022-07-29T04:21:21;17.00;86.50
25360;DHT22;13311;51.386;0.016;2022-07-29T04:26:22;17.00;86.50
25360;DHT22;13311;51.386;0.016;2022-07-29T04:31:23;16.90;86.90
25360;DHT22;13311;51.386;0.016;2022-07-29T04:36:24;16.90;87.00
25360;DHT22;13311;51.386;0.016;2022-07-29T04:41:25;16.80;87.40
25360;DHT22;13311;51.386;0.016;2022-07-29T04:46:25;16.80;87.90
25360;DHT22;13311;51.386;0.016;2022-07-29T04:51:26;16.80;88.00
25360;DHT22;13311;51.386;0.016;2022-07-29T04:56:27;16.80;88.10
25360;DHT22;13311;51.386;0.016;2022-07-29T05:01:28;16.80;87.60
25360;DHT22;13311;51.386;0.016;2022-07-29T05:06:29;16.90;87.80
25360;DHT22;13311;51.386;0.016;2022-07-29T05:11:30;16.90;87.90
25360;DHT22;13311;51.386;0.016;2022-07-29T05:16:30;17.10;88.20
25360;DHT22;13311;51.386;0.016;2022-07-29T05:21:32;17.20;88.30
25360;DHT22;13311;51.386;0.016;2022-07-29T05:26:32;17.40;88.50
25360;DHT22;13311;51.386;0.016;2022-07-29T05:31:33;17.80;88.50
25360;DHT22;13311;51.386;0.016;2022-07-29T05:36:34;18.50;87.60
25360;DHT22;13311;51.386;0.016;2022-07-29T05:41:35;19.50;84.70
25360;DHT22;13311;51.386;0.016;2022-07-29T05:46:35;20.50;80.70
25360;DHT22;13311;51.386;0.016;2022-07-29T05:51:36;21.50;77.40
25360;DHT22;13311;51.386;0.016;2022-07-29T05:56:37;22.20;74.70
25360;DHT22;13311;51.386;0.016;2022-07-29T06:01:38;23.10;72.70
25360;DHT22;13311;51.386;0.016;2022-07-29T06:06:39;23.90;70.30
25360;DHT22;13311;51.386;0.016;2022-07-29T06:11:40;24.70;69.20
25360;DHT22;13311;51.386;0.016;2022-07-29T06:16:41;25.50;66.20
25360;DHT22;13311;51.386;0.016;2022-07-29T06:21:43;26.20;64.20
25360;DHT22;13311;51.386;0.016;2022-07-29T06:26:45;26.30;61.80
25360;DHT22;13311;51.386;0.016;2022-07-29T06:31:46;26.20;62.30
25360;DHT22;13311;51.386;0.016;2022-07-29T06:36:46;26.10;62.20
25360;DHT22;13311;51.386;0.016;2022-07-29T06:41:48;26.10;62.60
25360;DHT22;13311;51.386;0.016;2022-07-29T06:46:50;26.20;62.80
25360;DHT22;13311;51.386;0.016;2022-07-29T06:51:52;26.50;63.00
25360;DHT22;13311;51.386;0.016;2022-07-29T06:56:53;27.00;63.70
25360;DHT22;13311;51.386;0.016;2022-07-29T07:01:54;27.40;62.80
25360;DHT22;13311;51.386;0.016;2022-07-29T07:06:55;27.60;58.30
25360;DHT22;13311;51.386;0.016;2022-07-29T07:11:56;27.70;60.40
25360;DHT22;13311;51.386;0.016;2022-07-29T07:16:57;27.80;59.60
25360;DHT22;13311;51.386;0.016;2022-07-29T07:22:00;28.00;60.10
25360;DHT22;13311;51.386;0.016;2022-07-29T07:27:01;27.70;60.70
25360;DHT22;13311;51.386;0.016;2022-07-29T07:32:02;26.90;61.60
25360;DHT22;13311;51.386;0.016;2022-07-29T07:37:03;26.60;61.00
25360;DHT22;13311;51.386;0.016;2022-07-29T07:42:04;26.20;64.00
25360;DHT22;13311;51.386;0.016;2022-07-29T07:47:05;25.70;66.60
25360;DHT22;13311;51.386;0.016;2022-07-29T07:52:07;25.50;67.00
25360;DHT22;13311;51.386;0.016;2022-07-29T07:57:08;25.40;66.80
25360;DHT22;13311;51.386;0.016;2022-07-29T08:02:09;25.50;66.00
25360;DHT22;13311;51.386;0.016;2022-07-29T08:07:10;25.40;66.40
25360;DHT22;13311;51.386;0.016;2022-07-29T08:12:11;25.30;66.00
25360;DHT22;13311;51.386;0.016;2022-07-29T08:17:12;25.80;65.20
25360;DHT22;13311;51.386;0.016;2022-07-29T08:22:12;25.80;65.50
25360;DHT22;13311;51.386;0.016;2022-07-29T08:27:13;25.80;63.30
25360;DHT22;13311;51.386;0.016;2022-07-29T08:32:14;26.00;60.10
25360;DHT22;13311;51.386;0.016;2022-07-29T08:37:15;26.10;59.90
25360;DHT22;13311;51.386;0.016;2022-07-29T08:42:16;26.30;59.90
25360;DHT22;13311;51.386;0.016;2022-07-29T08:47:17;26.20;58.50
25360;DHT22;13311;51.386;0.016;2022-07-29T08:52:18;26.50;59.00
25360;DHT22;13311;51.386;0.016;2022-07-29T08:57:21;26.80;58.80
25360;DHT22;13311;51.386;0.016;2022-07-29T09:02:23;27.20;58.00
25360;DHT22;13311;51.386;0.016;2022-07-29T09:07:26;27.50;57.80
25360;DHT22;13311;51.386;0.016;2022-07-29T09:12:27;27.90;59.30
25360;DHT22;13311;51.386;0.016;2022-07-29T09:17:43;27.70;54.80
25360;DHT22;13311;51.386;0.016;2022-07-29T09:22:46;27.40;55.50
25360;DHT22;13311;51.386;0.016;2022-07-29T09:27:51;27.70;57.50
25360;DHT22;13311;51.386;0.016;2022-07-29T09:32:56;28.10;55.20
25360;DHT22;13311;51.386;0.016;2022-07-29T09:38:12;28.30;58.10
25360;DHT22;13311;51.386;0.016;2022-07-29T09:43:14;28.30;59.10
25360;DHT22;13311;51.386;0.016;2022-07-29T09:48:17;28.20;55.50
25360;DHT22;13311;51.386;0.016;2022-07-29T09:58:33;28.60;52.50
25360;DHT22;13311;51.386;0.016;2022-07-29T10:03:51;28.40;52.00
25360;DHT22;13311;51.386;0.016;2022-07-29T10:08:52;28.80;55.70
25360;DHT22;13311;51.386;0.016;2022-07-29T10:13:53;29.00;51.10
25360;DHT22;13311;51.386;0.016;2022-07-29T10:18:54;29.20;52.00
25360;DHT22;13311;51.386;0.016;2022-07-29T10:23:57;29.20;54.90
25360;DHT22;13311;51.386;0.016;2022-07-29T10:29:00;29.50;51.30
25360;DHT22;13311;51.386;0.016;2022-07-29T10:34:07;29.70;50.50
25360;DHT22;13311;51.386;0.016;2022-07-29T10:44:42;30.40;53.90
25360;DHT22;13311;51.386;0.016;2022-07-29T10:50:04;30.30;54.60
25360;DHT22;13311;51.386;0.016;2022-07-29T10:55:06;30.20;55.20
25360;DHT22;13311;51.386;0.016;2022-07-29T11:05:16;30.10;48.30
25360;DHT22;13311;51.386;0.016;2022-07-29T11:10:22;30.30;50.20
25360;DHT22;13311;51.386;0.016;2022-07-29T11:15:23;30.50;54.70
25360;DHT22;13311;51.386;0.016;2022-07-29T11:25:41;30.20;46.20
25360;DHT22;13311;51.386;0.016;2022-07-29T11:30:50;30.10;48.70
25360;DHT22;13311;51.386;0.016;2022-07-29T11:36:12;30.30;45.50
25360;DHT22;13311;51.386;0.016;2022-07-29T11:46:43;30.30;47.30
25360;DHT22;13311;51.386;0.016;2022-07-29T11:51:53;30.60;45.00
25360;DHT22;13311;51.386;0.016;2022-07-29T11:56:55;31.00;51.30
25360;DHT22;13311;51.386;0.016;2022-07-29T12:02:00;31.20;51.20
25360;DHT22;13311;51.386;0.016;2022-07-29T12:07:02;31.10;47.60
25360;DHT22;13311;51.386;0.016;2022-07-29T12:12:03;31.20;42.80
25360;DHT22;13311;51.386;0.016;2022-07-29T12:17:04;31.50;43.30
25360;DHT22;13311;51.386;0.016;2022-07-29T12:22:05;31.50;48.70
25360;DHT22;13311;51.386;0.016;2022-07-29T12:27:06;31.80;43.50
25360;DHT22;13311;51.386;0.016;2022-07-29T12:32:07;31.20;42.20
25360;DHT22;13311;51.386;0.016;2022-07-29T12:37:09;31.10;45.50
25360;DHT22;13311;51.386;0.016;2022-07-29T12:42:14;31.20;46.50
25360;DHT22;13311;51.386;0.016;2022-07-29T12:47:17;31.30;48.40
25360;DHT22;13311;51.386;0.016;2022-07-29T12:52:29;31.10;41.80
25360;DHT22;13311;51.386;0.016;2022-07-29T12:57:43;31.20;49.40
25360;DHT22;13311;51.386;0.016;2022-07-29T13:02:55;31.40;47.40
25360;DHT22;13311;51.386;0.016;2022-07-29T13:08:13;31.70;46.50
25360;DHT22;13311;51.386;0.016;2022-07-29T13:13:15;31.80;48.40
25360;DHT22;13311;51.386;0.016;2022-07-29T13:23:30;31.80;42.00
25360;DHT22;13311;51.386;0.016;2022-07-29T13:28:31;32.00;47.90
25360;DHT22;13311;51.386;0.016;2022-07-29T13:33:31;32.00;40.80
25360;DHT22;13311;51.386;0.016;2022-07-29T13:38:32;31.60;40.90
25360;DHT22;13311;51.386;0.016;2022-07-29T13:43:34;31.80;42.10
25360;DHT22;13311;51.386;0.016;2022-07-29T13:48:35;31.80;44.10
25360;DHT22;13311;51.386;0.016;2022-07-29T13:53:35;31.70;39.90
25360;DHT22;13311;51.386;0.016;2022-07-29T13:58:36;31.70;48.90
25360;DHT22;13311;51.386;0.016;2022-07-29T14:03:37;31.80;48.30
25360;DHT22;13311;51.386;0.016;2022-07-29T14:08:41;31.60;40.20
25360;DHT22;13311;51.386;0.016;2022-07-29T14:13:42;31.60;43.50
25360;DHT22;13311;51.386;0.016;2022-07-29T14:18:42;31.80;45.20
25360;DHT22;13311;51.386;0.016;2022-07-29T14:23:43;31.60;41.90
25360;DHT22;13311;51.386;0.016;2022-07-29T14:28:44;31.70;46.00
25360;DHT22;13311;51.386;0.016;2022-07-29T14:33:45;31.40;40.40
25360;DHT22;13311;51.386;0.016;2022-07-29T14:38:46;31.40;40.80
25360;DHT22;13311;51.386;0.016;2022-07-29T14:43:46;31.70;45.90
25360;DHT22;13311;51.386;0.016;2022-07-29T14:48:47;31.60;40.00
25360;DHT22;13311;51.386;0.016;2022-07-29T14:53:48;31.90;45.80
25360;DHT22;13311;51.386;0.016;2022-07-29T14:58:49;31.70;39.40
25360;DHT22;13311;51.386;0.016;2022-07-29T15:03:50;31.70;44.20
25360;DHT22;13311;51.386;0.016;2022-07-29T15:08:51;31.90;46.10
25360;DHT22;13311;51.386;0.016;2022-07-29T15:13:52;31.80;40.20
25360;DHT22;13311;51.386;0.016;2022-07-29T15:18:53;31.60;39.90
25360;DHT22;13311;51.386;0.016;2022-07-29T15:23:54;31.50;40.90
25360;DHT22;13311;51.386;0.016;2022-07-29T15:28:54;31.10;39.60
25360;DHT22;13311;51.386;0.016;2022-07-29T15:33:58;30.70;39.50
25360;DHT22;13311;51.386;0.016;2022-07-29T15:38:59;30.20;40.90
25360;DHT22;13311;51.386;0.016;2022-07-29T15:44:00;30.20;41.20
25360;DHT22;13311;51.386;0.016;2022-07-29T15:49:04;30.40;41.30
25360;DHT22;13311;51.386;0.016;2022-07-29T15:54:06;30.60;40.90
25360;DHT22;13311;51.386;0.016;2022-07-29T15:59:07;30.70;41.10
25360;DHT22;13311;51.386;0.016;2022-07-29T16:04:08;30.90;41.70
25360;DHT22;13311;51.386;0.016;2022-07-29T16:09:08;31.20;46.00
25360;DHT22;13311;51.386;0.016;2022-07-29T16:14:09;31.30;45.20
25360;DHT22;13311;51.386;0.016;2022-07-29T16:19:11;31.40;45.10
25360;DHT22;13311;51.386;0.016;2022-07-29T16:24:12;31.40;45.80
25360;DHT22;13311;51.386;0.016;2022-07-29T16:29:12;31.50;46.30
25360;DHT22;13311;51.386;0.016;2022-07-29T16:34:13;31.50;46.70
25360;DHT22;13311;51.386;0.016;2022-07-29T16:39:14;31.50;44.70
25360;DHT22;13311;51.386;0.016;2022-07-29T16:44:15;31.30;40.20
25360;DHT22;13311;51.386;0.016;2022-07-29T16:49:15;30.90;40.00
25360;DHT22;13311;51.386;0.016;2022-07-29T16:54:16;31.10;44.70
25360;DHT22;13311;51.386;0.016;2022-07-29T16:59:17;31.30;45.20
25360;DHT22;13311;51.386;0.016;2022-07-29T17:04:18;31.40;43.10
25360;DHT22;13311;51.386;0.016;2022-07-29T17:09:18;31.20;42.30
25360;DHT22;13311;51.386;0.016;2022-07-29T17:14:26;31.30;42.20
25360;DHT22;13311;51.386;0.016;2022-07-29T17:19:33;31.00;39.90
25360;DHT22;13311;51.386;0.016;2022-07-29T17:24:34;31.00;41.70
25360;DHT22;13311;51.386;0.016;2022-07-29T17:29:36;30.80;40.20
25360;DHT22;13311;51.386;0.016;2022-07-29T17:34:39;30.70;40.20
25360;DHT22;13311;51.386;0.016;2022-07-29T17:39:41;30.30;41.60
25360;DHT22;13311;51.386;0.016;2022-07-29T17:44:42;29.50;46.20
25360;DHT22;13311;51.386;0.016;2022-07-29T17:49:44;29.20;47.60
25360;DHT22;13311;51.386;0.016;2022-07-29T17:54:44;28.90;48.80
25360;DHT22;13311;51.386;0.016;2022-07-29T17:59:47;28.30;49.90
25360;DHT22;13311;51.386;0.016;2022-07-29T18:04:48;27.60;51.10
25360;DHT22;13311;51.386;0.016;2022-07-29T18:09:50;27.10;52.70
25360;DHT22;13311;51.386;0.016;2022-07-29T18:14:50;26.80;53.60
25360;DHT22;13311;51.386;0.016;2022-07-29T18:19:52;26.50;54.50
25360;DHT22;13311;51.386;0.016;2022-07-29T18:24:53;26.50;55.40
25360;DHT22;13311;51.386;0.016;2022-07-29T18:29:54;26.50;55.90
25360;DHT22;13311;51.386;0.016;2022-07-29T18:34:55;26.50;55.90
25360;DHT22;13311;51.386;0.016;2022-07-29T18:39:55;26.60;56.00
25360;DHT22;13311;51.386;0.016;2022-07-29T18:44:56;26.60;56.40
25360;DHT22;13311;51.386;0.016;2022-07-29T18:49:57;26.60;56.60
25360;DHT22;13311;51.386;0.016;2022-07-29T18:55:01;26.60;55.80
25360;DHT22;13311;51.386;0.016;2022-07-29T19:00:03;26.60;55.00
25360;DHT22;13311;51.386;0.016;2022-07-29T19:05:08;26.70;54.50
25360;DHT22;13311;51.386;0.016;2022-07-29T19:10:09;26.70;55.20
25360;DHT22;13311;51.386;0.016;2022-07-29T19:15:11;26.60;55.20
25360;DHT22;13311;51.386;0.016;2022-07-29T19:20:12;26.60;55.40
25360;DHT22;13311;51.386;0.016;2022-07-29T19:25:13;26.50;55.50
25360;DHT22;13311;51.386;0.016;2022-07-29T19:30:14;26.50;55.60
25360;DHT22;13311;51.386;0.016;2022-07-29T19:35:15;26.50;55.70
25360;DHT22;13311;51.386;0.016;2022-07-29T19:40:25;26.40;56.00
25360;DHT22;13311;51.386;0.016;2022-07-29T19:45:27;26.30;56.80
25360;DHT22;13311;51.386;0.016;2022-07-29T19:50:29;26.30;56.30
25360;DHT22;13311;51.386;0.016;2022-07-29T19:55:31;26.30;56.40
25360;DHT22;13311;51.386;0.016;2022-07-29T20:00:32;26.20;56.60
25360;DHT22;13311;51.386;0.016;2022-07-29T20:05:32;26.00;56.90
25360;DHT22;13311;51.386;0.016;2022-07-29T20:10:33;25.90;57.30
25360;DHT22;13311;51.386;0.016;2022-07-29T20:15:34;25.80;57.50
25360;DHT22;13311;51.386;0.016;2022-07-29T20:20:35;25.80;57.70
25360;DHT22;13311;51.386;0.016;2022-07-29T20:25:36;25.70;57.80
25360;DHT22;13311;51.386;0.016;2022-07-29T20:30:37;25.70;58.20
25360;DHT22;13311;51.386;0.016;2022-07-29T20:35:38;25.70;58.40
25360;DHT22;13311;51.386;0.016;2022-07-29T20:40:40;25.50;58.70
25360;DHT22;13311;51.386;0.016;2022-07-29T20:45:40;25.40;59.40
25360;DHT22;13311;51.386;0.016;2022-07-29T20:50:41;25.20;60.00
25360;DHT22;13311;51.386;0.016;2022-07-29T20:55:44;25.00;60.60
25360;DHT22;13311;51.386;0.016;2022-07-29T21:00:45;24.90;61.00
25360;DHT22;13311;51.386;0.016;2022-07-29T21:05:46;24.80;61.40
25360;DHT22;13311;51.386;0.016;2022-07-29T21:10:47;24.70;61.70
25360;DHT22;13311;51.386;0.016;2022-07-29T21:15:48;24.70;62.10
25360;DHT22;13311;51.386;0.016;2022-07-29T21:20:51;24.60;62.50
25360;DHT22;13311;51.386;0.016;2022-07-29T21:25:56;24.50;62.80
25360;DHT22;13311;51.386;0.016;2022-07-29T21:30:58;24.30;63.40
25360;DHT22;13311;51.386;0.016;2022-07-29T21:36:01;24.20;64.00
25360;DHT22;13311;51.386;0.016;2022-07-29T21:41:03;24.00;64.40
25360;DHT22;13311;51.386;0.016;2022-07-29T21:46:05;23.90;64.80
25360;DHT22;13311;51.386;0.016;2022-07-29T21:51:05;23.90;65.30
25360;DHT22;13311;51.386;0.016;2022-07-29T21:56:06;23.70;65.70
25360;DHT22;13311;51.386;0.016;2022-07-29T22:01:07;23.60;66.30
25360;DHT22;13311;51.386;0.016;2022-07-29T22:06:08;23.50;66.50
25360;DHT22;13311;51.386;0.016;2022-07-29T22:11:09;23.40;66.40
25360;DHT22;13311;51.386;0.016;2022-07-29T22:16:09;23.40;66.40
25360;DHT22;13311;51.386;0.016;2022-07-29T22:21:14;23.40;66.40
25360;DHT22;13311;51.386;0.016;2022-07-29T22:26:16;23.40;66.40
25360;DHT22;13311;51.386;0.016;2022-07-29T22:31:17;23.40;66.00
25360;DHT22;13311;51.386;0.016;2022-07-29T22:36:18;23.40;65.90
25360;DHT22;13311;51.386;0.016;2022-07-29T22:41:19;23.40;65.80
25360;DHT22;13311;51.386;0.016;2022-07-29T22:46:20;23.40;65.80
25360;DHT22;13311;51.386;0.016;2022-07-29T22:51:20;23.40;65.40
25360;DHT22;13311;51.386;0.016;2022-07-29T22:56:21;23.40;65.50
25360;DHT22;13311;51.386;0.016;2022-07-29T23:01:22;23.30;65.80
25360;DHT22;13311;51.386;0.016;2022-07-29T23:06:23;23.20;66.00
25360;DHT22;13311;51.386;0.016;2022-07-29T23:11:24;23.10;66.50
25360;DHT22;13311;51.386;0.016;2022-07-29T23:16:25;23.00;66.80
25360;DHT22;13311;51.386;0.016;2022-07-29T23:21:26;22.90;67.30
25360;DHT22;13311;51.386;0.016;2022-07-29T23:26:26;22.70;67.60
25360;DHT22;13311;51.386;0.016;2022-07-29T23:31:27;22.70;67.80
25360;DHT22;13311;51.386;0.016;2022-07-29T23:36:28;22.60;68.00
25360;DHT22;13311;51.386;0.016;2022-07-29T23:41:30;22.50;68.30
25360;DHT22;13311;51.386;0.016;2022-07-29T23:46:31;22.40;68.70
25360;DHT22;13311;51.386;0.016;2022-07-29T23:51:32;22.30;68.70
25360;DHT22;13311;51.386;0.016;2022-07-29T23:56:32;22.20;68.90
